Time;durP1;ratioP1;P1;durP2;ratioP2;P2;SDS_P1;SDS_P2;PMS_P1;PMS_P2;Temp;Humidity;BMP_temperature;BMP_pressure;BME280_temperature;BME280_humidity;BME280_pressure;Samples;Min_cycle;Max_cycle;Signal;HPM_P1;HPM_P2
2022/02/03 00:00:31;;;;;;;5.10;1.77;;;9.50;99.90;;;;;;5013273;28;20211;-74
2022/02/03 00:03:07;;;;;;;3.60;2.20;;;9.40;99.90;;;;;;5013580;28;20205;-79
2022/02/03 00:05:43;;;;;;;3.17;1.93;;;9.30;99.90;;;;;;5012181;28;20229;-73
2022/02/03 00:08:18;;;;;;;3.67;1.57;;;9.30;99.90;;;;;;5013234;28;20233;-73
2022/02/03 00:16:45;;;;;;;3.67;1.60;;;9.60;99.90;;;;;;5013340;28;20212;-73
2022/02/03 00:24:58;;;;;;;3.77;1.93;;;9.40;99.90;;;;;;5010960;28;20238;-81
2022/02/03 00:30:32;;;;;;;1.77;1.10;;;9.50;99.90;;;;;;4997452;28;20284;-74
2022/02/03 00:48:14;;;;;;;3.50;1.30;;;9.30;99.90;;;;;;5011824;28;20682;-74
2022/02/03 00:50:08;;;;;;;2.27;0.80;;;9.30;99.90;;;;;;4952434;29;20203;-75
2022/02/03 00:52:36;;;;;;;4.80;1.00;;;9.30;99.90;;;;;;4988738;28;20212;-73
2022/02/03 00:55:03;;;;;;;3.20;0.70;;;9.30;99.90;;;;;;5013007;28;20253;-73
2022/02/03 00:57:34;;;;;;;1.17;0.67;;;9.30;99.90;;;;;;5012461;28;20225;-77
2022/02/03 01:00:05;;;;;;;0.70;0.50;;;9.20;99.90;;;;;;5012059;28;20251;-82
2022/02/03 01:02:37;;;;;;;1.03;0.57;;;9.30;99.90;;;;;;5012289;28;20209;-80
2022/02/03 01:05:06;;;;;;;1.87;0.60;;;9.20;99.90;;;;;;5012271;28;20233;-80
2022/02/03 01:07:36;;;;;;;2.53;0.60;;;9.30;99.90;;;;;;5017029;28;20221;-73
2022/02/03 01:10:10;;;;;;;2.83;1.10;;;9.30;99.90;;;;;;5003813;28;20202;-73
2022/02/03 01:12:47;;;;;;;2.70;1.00;;;9.30;99.90;;;;;;5012968;28;20212;-74
2022/02/03 01:15:22;;;;;;;1.30;0.70;;;9.40;99.90;;;;;;5012559;28;20209;-80
2022/02/03 01:18:03;;;;;;;3.70;1.00;;;9.40;99.90;;;;;;5012616;28;20240;-82
2022/02/03 01:20:59;;;;;;;1.93;0.50;;;9.40;99.90;;;;;;5012862;28;20210;-73
2022/02/03 01:34:52;;;;;;;1.67;0.70;;;9.20;99.90;;;;;;5014755;28;20212;-82
2022/02/03 01:37:49;;;;;;;1.63;0.70;;;9.10;99.90;;;;;;5014895;28;20255;-77
2022/02/03 01:43:27;;;;;;;1.13;0.60;;;9.20;99.90;;;;;;5015859;28;20217;-72
2022/02/03 01:45:56;;;;;;;2.27;0.70;;;9.20;99.90;;;;;;5016345;28;20239;-82
2022/02/03 01:48:39;;;;;;;1.27;0.60;;;9.10;99.90;;;;;;5015830;28;20694;-72
2022/02/03 01:53:50;;;;;;;1.00;0.70;;;9.20;99.90;;;;;;5010543;28;20212;-72
2022/02/03 01:56:19;;;;;;;3.27;0.83;;;9.30;99.90;;;;;;5015960;28;20209;-82
2022/02/03 01:58:50;;;;;;;1.60;0.60;;;9.20;99.90;;;;;;5015993;28;20225;-82
2022/02/03 02:01:24;;;;;;;3.00;0.67;;;9.20;99.90;;;;;;5014743;28;20558;-78
2022/02/03 02:03:59;;;;;;;5.83;1.07;;;9.20;99.90;;;;;;5015395;28;20197;-73
2022/02/03 02:06:43;;;;;;;1.17;0.70;;;9.20;99.90;;;;;;5015332;28;20209;-82
2022/02/03 02:09:22;;;;;;;3.30;1.10;;;9.30;99.90;;;;;;5015855;28;20300;-73
2022/02/03 02:12:01;;;;;;;9.00;1.00;;;9.30;99.90;;;;;;5015440;28;20211;-74
2022/02/03 02:18:10;;;;;;;3.80;1.10;;;9.10;99.90;;;;;;5014317;28;20217;-81
2022/02/03 02:37:39;;;;;;;4.47;1.20;;;9.10;99.90;;;;;;5015714;28;20240;-73
2022/02/03 02:43:02;;;;;;;3.87;1.40;;;9.00;99.90;;;;;;5012022;28;20198;-81
2022/02/03 02:45:41;;;;;;;2.60;1.20;;;9.00;99.90;;;;;;5014170;28;20233;-73
2022/02/03 02:48:24;;;;;;;4.20;1.20;;;9.00;99.90;;;;;;5014520;28;20229;-77
2022/02/03 02:50:59;;;;;;;2.07;1.10;;;9.00;99.90;;;;;;5015296;28;20296;-80
2022/02/03 02:53:38;;;;;;;4.40;1.10;;;9.00;99.90;;;;;;5015849;28;20209;-76
2022/02/03 02:56:19;;;;;;;5.73;1.30;;;9.00;99.90;;;;;;5014930;28;20213;-81
2022/02/03 02:59:06;;;;;;;2.60;1.53;;;9.10;99.90;;;;;;5014626;28;20229;-82
2022/02/03 03:29:43;;;;;;;3.77;1.73;;;9.00;99.90;;;;;;5014255;28;20256;-74
2022/02/03 03:32:39;;;;;;;5.53;1.53;;;9.00;99.90;;;;;;5013242;28;20201;-77
2022/02/03 03:35:17;;;;;;;3.33;1.50;;;9.00;99.90;;;;;;5014128;28;20658;-74
2022/02/03 03:37:47;;;;;;;3.90;1.90;;;9.00;99.90;;;;;;5013895;28;20233;-73
2022/02/03 03:40:16;;;;;;;7.17;2.17;;;9.00;99.90;;;;;;5013869;28;20213;-78
2022/02/03 03:42:46;;;;;;;5.10;2.27;;;9.00;99.90;;;;;;5013977;28;20301;-74
2022/02/03 03:45:13;;;;;;;5.87;1.90;;;9.00;99.90;;;;;;5014100;28;20726;-81
2022/02/03 03:47:47;;;;;;;3.80;1.93;;;9.00;99.90;;;;;;5013560;28;20221;-75
2022/02/03 03:50:17;;;;;;;4.43;1.70;;;9.00;99.90;;;;;;5014593;28;20212;-78
2022/02/03 03:52:52;;;;;;;6.33;1.93;;;9.10;99.90;;;;;;5015210;28;20284;-73
2022/02/03 03:55:32;;;;;;;5.53;2.10;;;9.10;99.90;;;;;;5013595;28;20692;-74
2022/02/03 04:32:44;;;;;;;3.70;2.00;;;8.90;99.90;;;;;;4957154;28;20208;-81
2022/02/03 04:55:56;;;;;;;4.03;2.13;;;8.90;99.90;;;;;;5013036;28;20624;-74
2022/02/03 04:59:19;;;;;;;4.30;2.10;;;9.00;99.90;;;;;;5012888;28;20428;-79
2022/02/03 05:02:18;;;;;;;7.77;2.00;;;9.10;99.90;;;;;;5013853;28;20708;-79
2022/02/03 05:05:11;;;;;;;3.33;1.97;;;9.00;99.90;;;;;;5014225;28;20257;-79
2022/02/03 05:08:10;;;;;;;6.97;2.20;;;9.00;99.90;;;;;;5013792;28;20698;-82
2022/02/03 05:11:13;;;;;;;5.67;2.43;;;8.90;99.90;;;;;;5013848;28;20721;-81
2022/02/03 05:14:20;;;;;;;5.37;2.37;;;8.90;99.90;;;;;;5014714;28;20208;-74
2022/02/03 05:17:12;;;;;;;6.60;1.63;;;8.80;99.90;;;;;;5015440;28;20209;-74
2022/02/03 05:26:32;;;;;;;3.27;1.77;;;8.70;99.90;;;;;;5016868;28;20228;-75
2022/02/03 05:32:39;;;;;;;4.87;1.83;;;8.60;99.90;;;;;;5016442;28;20251;-75
2022/02/03 05:41:59;;;;;;;4.77;1.60;;;8.50;99.90;;;;;;5016286;28;20209;-79
2022/02/03 05:44:26;;;;;;;3.13;1.60;;;8.30;99.90;;;;;;5015785;28;20200;-81
2022/02/03 05:47:10;;;;;;;5.37;1.67;;;8.30;99.90;;;;;;5014676;28;20425;-79
2022/02/03 06:04:03;;;;;;;4.73;1.50;;;8.30;99.90;;;;;;5014783;28;20201;-73
2022/02/03 06:06:49;;;;;;;6.20;1.60;;;8.30;99.90;;;;;;5015488;28;20323;-80
2022/02/03 06:09:26;;;;;;;5.17;1.33;;;8.30;99.90;;;;;;5015414;28;20209;-78
2022/02/03 06:12:29;;;;;;;4.57;1.23;;;8.30;99.90;;;;;;5015795;28;20244;-80
2022/02/03 06:15:04;;;;;;;3.23;1.67;;;8.40;99.90;;;;;;5015654;28;20213;-73
2022/02/03 06:17:37;;;;;;;3.57;1.30;;;8.40;99.90;;;;;;5014763;28;20225;-80
2022/02/03 06:22:53;;;;;;;1.97;1.30;;;8.30;99.90;;;;;;5015513;28;20665;-81
2022/02/03 06:28:04;;;;;;;1.80;1.20;;;8.40;99.90;;;;;;5015253;28;20225;-81
2022/02/03 06:30:32;;;;;;;3.63;1.40;;;8.40;99.90;;;;;;5014633;28;20670;-74
2022/02/03 06:32:59;;;;;;;4.50;1.17;;;8.30;99.90;;;;;;5014512;28;20681;-76
2022/02/03 06:35:26;;;;;;;3.80;1.30;;;8.20;99.90;;;;;;5014791;28;20209;-74
2022/02/03 06:37:52;;;;;;;2.40;1.40;;;8.30;99.90;;;;;;5014091;28;20234;-81
2022/02/03 06:40:19;;;;;;;2.30;1.43;;;8.30;99.90;;;;;;5014881;28;20208;-75
2022/02/03 06:42:53;;;;;;;3.43;1.10;;;8.40;99.90;;;;;;5014437;28;20224;-73
2022/02/03 06:45:31;;;;;;;2.70;1.13;;;8.30;99.90;;;;;;5013724;28;20221;-71
2022/02/03 06:48:04;;;;;;;3.33;1.70;;;8.30;99.90;;;;;;5010347;28;20311;-69
2022/02/03 06:50:38;;;;;;;3.03;1.50;;;8.30;99.90;;;;;;5013833;28;20245;-72
2022/02/03 06:53:10;;;;;;;5.13;1.43;;;8.40;99.90;;;;;;5014054;28;20205;-69
2022/02/03 06:55:44;;;;;;;6.57;1.47;;;8.40;99.90;;;;;;5014072;28;20655;-70
2022/02/03 06:58:17;;;;;;;3.23;1.00;;;8.40;99.90;;;;;;5013805;28;20225;-69
2022/02/03 07:00:54;;;;;;;5.13;1.27;;;8.30;99.90;;;;;;5013855;28;20206;-75
2022/02/03 07:03:26;;;;;;;2.17;1.13;;;8.40;99.90;;;;;;5013916;28;20284;-70
2022/02/03 07:05:53;;;;;;;2.13;1.23;;;8.40;99.90;;;;;;5013143;28;20667;-73
2022/02/03 07:08:21;;;;;;;3.40;1.30;;;8.40;99.90;;;;;;5013884;28;20312;-81
2022/02/03 07:10:51;;;;;;;4.40;1.50;;;8.40;99.90;;;;;;5013769;28;20686;-77
2022/02/03 07:13:18;;;;;;;3.13;1.20;;;8.40;99.90;;;;;;5012971;28;20197;-70
2022/02/03 07:15:44;;;;;;;2.17;1.40;;;8.40;99.90;;;;;;5013694;28;20241;-72
2022/02/03 07:18:11;;;;;;;3.20;1.20;;;8.50;99.90;;;;;;5013036;28;20225;-69
2022/02/03 07:20:40;;;;;;;4.23;1.53;;;8.40;99.90;;;;;;5020245;28;20205;-76
2022/02/03 07:23:09;;;;;;;6.00;1.10;;;8.50;99.90;;;;;;5026768;28;20198;-75
2022/02/03 07:25:36;;;;;;;6.23;1.40;;;8.40;99.90;;;;;;5013219;28;20230;-76
2022/02/03 07:28:04;;;;;;;4.60;1.47;;;8.30;99.90;;;;;;5013586;28;20726;-75
2022/02/03 07:30:31;;;;;;;2.83;1.30;;;8.20;99.90;;;;;;5013670;28;20205;-72
2022/02/03 07:32:59;;;;;;;5.67;1.57;;;8.40;99.90;;;;;;5013598;28;20202;-71
2022/02/03 07:35:29;;;;;;;4.03;1.10;;;8.40;99.90;;;;;;5014082;28;20213;-71
2022/02/03 07:37:57;;;;;;;5.50;1.43;;;8.40;99.90;;;;;;5020210;28;20225;-72
2022/02/03 07:40:24;;;;;;;5.03;1.40;;;8.30;99.90;;;;;;5013976;28;20208;-71
2022/02/03 07:42:51;;;;;;;2.57;1.30;;;8.30;99.90;;;;;;5013494;28;20693;-72
2022/02/03 07:45:20;;;;;;;3.77;1.20;;;8.30;99.90;;;;;;5022190;28;20572;-72
2022/02/03 07:47:48;;;;;;;5.37;1.50;;;8.40;99.90;;;;;;5010508;28;20228;-79
2022/02/03 07:50:16;;;;;;;5.23;1.40;;;8.40;99.90;;;;;;5010249;28;20197;-78
2022/02/03 07:52:43;;;;;;;8.57;1.10;;;8.40;99.90;;;;;;5013382;28;20206;-72
2022/02/03 07:55:12;;;;;;;6.03;1.10;;;8.50;99.90;;;;;;5012340;28;20206;-73
2022/02/03 07:57:44;;;;;;;3.73;1.20;;;8.50;99.90;;;;;;5012944;28;20225;-78
2022/02/03 08:00:12;;;;;;;5.30;1.20;;;8.50;99.90;;;;;;5013034;28;20205;-74
2022/02/03 08:02:41;;;;;;;2.97;1.47;;;8.40;99.90;;;;;;5013135;28;20206;-80
2022/02/03 08:05:09;;;;;;;4.67;1.30;;;8.40;99.90;;;;;;5013102;28;20251;-72
2022/02/03 08:07:48;;;;;;;4.10;1.10;;;8.40;99.90;;;;;;5013299;28;20245;-73
2022/02/03 08:10:30;;;;;;;1.87;0.93;;;8.40;99.90;;;;;;5013176;28;20209;-72
2022/02/03 08:13:00;;;;;;;6.47;1.50;;;8.40;99.90;;;;;;5018792;28;20581;-73
2022/02/03 08:15:29;;;;;;;2.13;1.13;;;8.40;99.90;;;;;;5030228;28;20201;-79
2022/02/03 08:18:01;;;;;;;5.47;1.53;;;8.40;99.90;;;;;;5002116;28;20223;-72
2022/02/03 08:20:28;;;;;;;1.77;1.00;;;8.40;99.90;;;;;;5013067;28;20206;-72
2022/02/03 08:23:10;;;;;;;3.57;1.27;;;8.30;99.90;;;;;;5003770;28;20229;-71
2022/02/03 08:25:43;;;;;;;7.43;1.43;;;8.30;99.90;;;;;;4993095;28;20610;-79
2022/02/03 08:31:01;;;;;;;5.73;1.50;;;8.30;99.90;;;;;;4989574;28;20242;-71
2022/02/03 08:33:30;;;;;;;5.07;1.47;;;8.30;99.90;;;;;;5011566;28;20208;-71
2022/02/03 08:35:58;;;;;;;4.23;1.37;;;8.40;99.90;;;;;;5012745;28;20210;-71
2022/02/03 08:38:38;;;;;;;5.23;1.50;;;8.30;99.90;;;;;;5013240;28;20241;-71
2022/02/03 08:41:06;;;;;;;3.53;1.40;;;8.30;99.90;;;;;;5013188;28;20237;-70
2022/02/03 08:43:34;;;;;;;2.50;1.50;;;8.40;99.90;;;;;;5000762;28;20201;-69
2022/02/03 08:46:03;;;;;;;3.03;1.30;;;8.40;99.90;;;;;;5012132;28;20232;-75
2022/02/03 08:48:30;;;;;;;2.93;1.30;;;8.40;99.90;;;;;;5014900;28;20586;-71
2022/02/03 08:50:57;;;;;;;3.47;1.20;;;8.50;99.90;;;;;;5009504;28;20249;-79
2022/02/03 08:53:28;;;;;;;4.33;1.50;;;8.50;99.90;;;;;;5012309;28;20211;-73
2022/02/03 08:56:06;;;;;;;5.27;1.67;;;8.60;99.90;;;;;;5023156;28;20651;-73
2022/02/03 08:59:08;;;;;;;3.77;1.37;;;8.60;99.90;;;;;;5010209;28;20705;-75
2022/02/03 09:35:15;;;;;;;4.33;1.20;;;8.60;99.90;;;;;;5033286;28;20688;-86
2022/02/03 09:54:47;;;;;;;4.63;1.50;;;8.40;99.90;;;;;;5013478;28;20201;-76
2022/02/03 09:57:20;;;;;;;4.77;1.43;;;8.50;99.90;;;;;;5013947;28;20235;-85
2022/02/03 10:00:00;;;;;;;2.47;1.20;;;8.50;99.90;;;;;;5013240;28;20208;-77
2022/02/03 10:02:30;;;;;;;2.40;1.13;;;8.60;99.90;;;;;;5016492;28;20251;-81
2022/02/03 10:05:11;;;;;;;2.77;1.27;;;8.80;99.90;;;;;;5016396;28;20225;-85
2022/02/03 10:07:38;;;;;;;4.60;1.63;;;8.90;99.90;;;;;;5016372;28;20324;-82
2022/02/03 10:10:13;;;;;;;1.33;1.00;;;8.90;99.90;;;;;;5019030;28;20216;-75
2022/02/03 10:12:42;;;;;;;5.03;1.20;;;8.90;99.90;;;;;;5017177;28;20211;-73
2022/02/03 10:15:11;;;;;;;2.87;1.20;;;9.00;99.90;;;;;;5017134;28;20217;-84
2022/02/03 10:17:41;;;;;;;3.17;1.23;;;8.90;99.90;;;;;;5015815;28;20702;-81
2022/02/03 10:20:14;;;;;;;5.17;1.30;;;8.90;99.90;;;;;;5016002;28;20228;-73
2022/02/03 10:22:46;;;;;;;4.00;1.47;;;8.80;99.90;;;;;;5016474;28;20206;-74
2022/02/03 10:25:14;;;;;;;4.70;1.10;;;8.80;99.90;;;;;;5016578;28;20212;-85
2022/02/03 10:27:46;;;;;;;2.70;1.50;;;8.80;99.90;;;;;;5016967;28;20240;-79
2022/02/03 10:30:22;;;;;;;5.73;1.60;;;8.70;99.90;;;;;;5016381;28;20673;-84
2022/02/03 10:32:49;;;;;;;7.20;1.37;;;8.60;99.90;;;;;;5015772;28;20205;-75
2022/02/03 10:35:23;;;;;;;8.10;1.77;;;8.60;99.90;;;;;;5015395;28;20206;-73
2022/02/03 10:38:07;;;;;;;2.70;1.13;;;8.50;99.90;;;;;;5016035;28;20663;-79
2022/02/03 10:40:57;;;;;;;3.77;1.10;;;8.50;99.90;;;;;;5015952;28;20284;-85
2022/02/03 10:43:47;;;;;;;3.73;1.50;;;8.60;99.90;;;;;;5015998;28;20229;-85
2022/02/03 10:49:15;;;;;;;4.83;1.47;;;8.60;99.90;;;;;;5015249;28;20221;-83
2022/02/03 10:52:33;;;;;;;3.57;1.10;;;8.60;99.90;;;;;;5017358;28;20260;-84
2022/02/03 10:55:23;;;;;;;8.93;1.70;;;8.70;99.90;;;;;;5016137;28;20213;-85
2022/02/03 11:03:33;;;;;;;4.90;1.67;;;8.60;99.90;;;;;;4992359;28;20201;-71
2022/02/03 11:06:12;;;;;;;6.00;1.63;;;8.70;99.90;;;;;;5022597;28;20256;-71
2022/02/03 11:08:47;;;;;;;5.80;1.60;;;8.80;99.90;;;;;;5022673;28;20232;-72
2022/02/03 11:11:18;;;;;;;1.87;1.17;;;8.70;99.90;;;;;;5020544;28;20646;-72
2022/02/03 11:13:48;;;;;;;8.43;1.70;;;8.60;99.90;;;;;;5022017;28;20198;-72
2022/02/03 11:16:17;;;;;;;2.53;1.17;;;8.60;99.90;;;;;;5021130;28;20204;-74
2022/02/03 11:18:47;;;;;;;4.13;1.60;;;8.70;99.90;;;;;;5022568;28;20225;-72
2022/02/03 11:21:14;;;;;;;5.67;1.20;;;8.80;99.90;;;;;;5024089;28;20201;-72
2022/02/03 11:23:49;;;;;;;5.50;1.50;;;8.60;99.90;;;;;;5023724;28;20220;-72
2022/02/03 11:26:25;;;;;;;5.70;1.80;;;8.60;99.90;;;;;;5021106;28;20196;-72
2022/02/03 11:35:14;;;;;;;10.43;2.33;;;8.60;99.90;;;;;;5023036;28;20225;-72
2022/02/03 11:38:00;;;;;;;4.93;1.50;;;8.70;99.90;;;;;;5020960;28;20321;-72
2022/02/03 11:40:50;;;;;;;4.13;1.33;;;8.90;99.90;;;;;;5021787;28;20210;-72
2022/02/03 11:43:44;;;;;;;5.47;1.60;;;8.90;99.90;;;;;;5033901;28;20320;-73
2022/02/03 11:49:20;;;;;;;1.93;1.50;;;9.10;99.90;;;;;;5017121;28;20291;-74
2022/02/03 11:58:14;;;;;;;8.97;2.23;;;9.20;99.90;;;;;;4978587;28;20229;-79
2022/02/03 12:07:17;;;;;;;5.77;1.77;;;8.90;99.90;;;;;;5014305;28;20707;-76
2022/02/03 12:18:58;;;;;;;6.47;1.70;;;8.90;99.90;;;;;;5132846;27;20569;-73
2022/02/03 12:21:26;;;;;;;5.00;1.60;;;9.20;99.90;;;;;;5126142;27;20211;-72
2022/02/03 12:24:15;;;;;;;4.27;1.23;;;9.10;99.90;;;;;;5133550;27;20201;-74
2022/02/03 12:26:48;;;;;;;2.83;1.60;;;9.20;99.90;;;;;;5114412;27;20202;-85
2022/02/03 12:29:19;;;;;;;7.00;1.70;;;9.20;99.90;;;;;;5124487;27;20216;-73
2022/02/03 12:32:05;;;;;;;2.77;1.40;;;9.30;99.90;;;;;;5124455;27;20656;-73
2022/02/03 12:40:19;;;;;;;6.07;1.67;;;9.30;99.90;;;;;;5107179;28;20210;-71
2022/02/03 12:42:52;;;;;;;5.47;1.53;;;9.20;99.90;;;;;;5113568;28;20206;-73
2022/02/03 12:45:23;;;;;;;5.53;1.43;;;9.30;99.90;;;;;;5114227;28;20241;-72
2022/02/03 12:47:52;;;;;;;3.67;1.83;;;9.30;99.90;;;;;;5110751;28;20226;-72
2022/02/03 12:50:25;;;;;;;3.27;1.60;;;9.20;99.90;;;;;;5122446;27;20203;-78
2022/02/03 12:52:53;;;;;;;2.37;1.30;;;9.20;99.90;;;;;;5123789;27;20209;-76
2022/02/03 12:55:29;;;;;;;3.63;1.40;;;9.20;99.90;;;;;;5110935;28;20202;-72
2022/02/03 12:57:57;;;;;;;3.03;1.40;;;9.30;99.90;;;;;;5120298;28;20225;-72
2022/02/03 13:00:31;;;;;;;7.10;1.70;;;9.30;99.90;;;;;;5131913;27;20212;-72
2022/02/03 13:03:00;;;;;;;5.73;1.80;;;9.20;99.90;;;;;;5125750;27;20198;-73
2022/02/03 13:05:30;;;;;;;2.30;1.33;;;9.10;99.90;;;;;;5110848;28;20202;-76
2022/02/03 13:08:00;;;;;;;5.00;2.00;;;9.10;99.90;;;;;;5113616;28;20225;-88
2022/02/03 13:10:31;;;;;;;6.40;1.37;;;9.10;99.90;;;;;;5129427;27;20258;-77
2022/02/03 13:13:12;;;;;;;6.50;1.60;;;8.90;99.90;;;;;;5132134;27;20208;-85
2022/02/03 13:15:42;;;;;;;5.47;1.57;;;9.00;99.90;;;;;;5129612;27;20235;-79
2022/02/03 13:18:14;;;;;;;2.13;1.50;;;9.00;99.90;;;;;;5132182;27;20229;-81
2022/02/03 13:20:48;;;;;;;3.80;1.97;;;9.00;99.90;;;;;;5126107;27;20280;-73
2022/02/03 13:23:19;;;;;;;3.07;1.60;;;8.90;99.90;;;;;;5124121;28;20200;-85
2022/02/03 13:25:57;;;;;;;3.50;1.93;;;8.80;99.90;;;;;;5128310;27;20201;-74
2022/02/03 13:28:34;;;;;;;4.50;1.80;;;8.60;99.90;;;;;;5122821;27;20251;-81
2022/02/03 13:31:17;;;;;;;5.07;2.43;;;8.60;99.90;;;;;;5116131;28;20229;-72
2022/02/03 13:33:51;;;;;;;8.10;1.80;;;8.60;99.90;;;;;;5116558;28;20202;-86
2022/02/03 13:36:25;;;;;;;3.93;1.87;;;8.70;99.90;;;;;;5102678;28;20190;-73
2022/02/03 13:39:00;;;;;;;5.00;2.10;;;8.80;99.90;;;;;;5106225;28;20218;-73
2022/02/03 13:41:29;;;;;;;3.63;1.80;;;8.80;99.90;;;;;;5105619;28;20198;-73
2022/02/03 13:43:57;;;;;;;3.70;1.77;;;8.90;99.90;;;;;;5104508;28;20233;-76
2022/02/03 13:46:28;;;;;;;8.23;2.23;;;8.90;99.90;;;;;;5105260;28;20529;-83
2022/02/03 13:48:55;;;;;;;3.80;1.57;;;8.90;99.90;;;;;;5104114;28;20290;-86
2022/02/03 13:51:27;;;;;;;4.17;2.37;;;8.80;99.90;;;;;;5105855;28;20205;-78
2022/02/03 13:54:03;;;;;;;10.23;2.47;;;8.80;99.90;;;;;;5103430;28;20247;-72
2022/02/03 14:22:12;;;;;;;6.90;3.00;;;8.70;99.90;;;;;;5013614;28;20657;-73
2022/02/03 14:27:26;;;;;;;5.13;2.60;;;8.70;99.90;;;;;;5093059;28;20715;-71
2022/02/03 14:29:59;;;;;;;6.87;2.73;;;8.80;99.90;;;;;;5092528;28;20194;-71
2022/02/03 14:32:31;;;;;;;5.03;2.90;;;8.90;99.90;;;;;;5092861;28;20728;-73
2022/02/03 14:34:59;;;;;;;2.97;1.93;;;8.80;99.90;;;;;;5094234;28;20728;-73
2022/02/03 14:37:40;;;;;;;7.60;2.50;;;8.70;99.90;;;;;;5092516;28;20681;-72
2022/02/03 14:42:55;;;;;;;9.63;2.67;;;8.80;99.90;;;;;;5083176;28;20683;-84
2022/02/03 14:45:22;;;;;;;4.97;2.70;;;8.80;99.90;;;;;;5095848;28;20201;-84
2022/02/03 14:47:48;;;;;;;9.77;2.70;;;8.80;99.90;;;;;;5103449;28;20704;-73
2022/02/03 14:50:15;;;;;;;6.07;2.57;;;8.80;99.90;;;;;;5092292;28;20264;-78
2022/02/03 14:52:56;;;;;;;4.37;2.53;;;8.80;99.90;;;;;;5092821;28;20588;-77
2022/02/03 14:58:17;;;;;;;7.33;2.67;;;8.70;99.90;;;;;;5092395;28;20237;-74
2022/02/03 15:00:46;;;;;;;4.50;2.97;;;8.50;99.90;;;;;;5093112;28;20201;-73
2022/02/03 15:03:13;;;;;;;6.50;3.17;;;8.50;99.90;;;;;;5095599;28;20201;-84
2022/02/03 15:05:41;;;;;;;5.53;2.70;;;8.40;99.90;;;;;;5104392;28;20198;-74
2022/02/03 15:08:16;;;;;;;9.10;3.07;;;8.30;99.90;;;;;;5093513;28;20301;-84
2022/02/03 15:10:50;;;;;;;7.27;2.97;;;8.30;99.90;;;;;;5109940;28;20201;-73
2022/02/03 15:13:32;;;;;;;5.30;2.90;;;8.20;99.90;;;;;;5113592;27;20209;-80
2022/02/03 15:16:00;;;;;;;6.77;2.93;;;8.30;99.90;;;;;;5109864;28;20570;-72
2022/02/03 15:18:27;;;;;;;7.50;3.53;;;8.30;99.90;;;;;;5102159;28;20238;-71
2022/02/03 15:20:53;;;;;;;5.60;2.93;;;8.30;99.90;;;;;;5096001;27;20297;-74
2022/02/03 15:23:20;;;;;;;5.30;3.43;;;8.30;99.90;;;;;;5095843;28;20203;-74
2022/02/03 15:25:49;;;;;;;7.53;3.33;;;8.40;99.90;;;;;;5115788;27;20679;-78
2022/02/03 15:28:16;;;;;;;5.63;3.17;;;8.50;99.90;;;;;;5106317;28;20583;-75
2022/02/03 15:30:43;;;;;;;7.23;3.20;;;8.40;99.90;;;;;;5100420;28;20226;-74
2022/02/03 15:33:10;;;;;;;4.93;3.07;;;8.30;99.90;;;;;;5101600;28;20194;-70
2022/02/03 15:35:41;;;;;;;7.73;3.50;;;8.20;99.90;;;;;;5108485;28;20193;-73
2022/02/03 15:38:13;;;;;;;5.60;2.93;;;8.20;99.90;;;;;;5116864;27;20232;-69
2022/02/03 15:40:40;;;;;;;5.73;3.20;;;8.10;99.90;;;;;;5100798;28;20267;-71
2022/02/03 15:43:12;;;;;;;8.57;3.13;;;8.20;99.90;;;;;;5100879;28;20275;-71
2022/02/03 15:45:41;;;;;;;6.23;3.03;;;8.30;99.90;;;;;;5100371;28;20199;-71
2022/02/03 15:48:17;;;;;;;7.13;3.00;;;8.30;99.90;;;;;;5103248;28;20221;-73
2022/02/03 15:51:05;;;;;;;8.17;2.90;;;8.40;99.90;;;;;;5092134;28;20205;-70
2022/02/03 15:56:29;;;;;;;4.80;2.90;;;8.50;99.90;;;;;;5092786;28;20286;-76
2022/02/03 16:18:30;;;;;;;5.30;3.20;;;8.30;99.90;;;;;;5071282;28;20225;-73
2022/02/03 16:21:02;;;;;;;7.87;3.27;;;8.30;99.90;;;;;;5097239;28;20206;-78
2022/02/03 16:23:58;;;;;;;6.43;3.27;;;8.30;99.90;;;;;;5106117;28;20569;-71
2022/02/03 16:26:57;;;;;;;7.33;3.30;;;8.20;99.90;;;;;;5109558;28;20210;-70
2022/02/03 16:51:28;;;;;;;8.50;3.50;;;8.50;99.90;;;;;;5090011;28;20205;-69
2022/02/03 16:53:55;;;;;;;5.83;3.50;;;8.50;99.90;;;;;;5093191;28;20196;-69
2022/02/03 16:56:24;;;;;;;6.10;3.50;;;8.50;99.90;;;;;;5101069;28;20218;-69
2022/02/03 16:58:51;;;;;;;5.77;3.73;;;8.50;99.90;;;;;;5107900;28;20234;-69
2022/02/03 17:01:18;;;;;;;7.10;3.60;;;8.60;99.90;;;;;;5100049;28;20217;-72
2022/02/03 17:03:47;;;;;;;10.00;3.50;;;8.60;99.90;;;;;;5111836;28;20198;-75
2022/02/03 17:06:13;;;;;;;8.63;3.83;;;8.60;99.90;;;;;;5106076;28;20205;-73
2022/02/03 17:08:41;;;;;;;6.90;3.93;;;8.60;99.90;;;;;;5112414;28;20225;-71
2022/02/03 17:11:08;;;;;;;8.47;4.03;;;8.50;99.90;;;;;;5095651;28;20203;-69
2022/02/03 17:13:35;;;;;;;8.87;3.83;;;8.60;99.90;;;;;;5102041;27;20567;-66
2022/02/03 17:16:02;;;;;;;7.83;3.73;;;8.70;99.90;;;;;;5136293;27;20201;-67
2022/02/03 17:18:29;;;;;;;6.53;3.47;;;8.70;99.90;;;;;;5133976;27;20236;-67
2022/02/03 17:20:57;;;;;;;8.20;4.37;;;8.70;99.90;;;;;;5094946;28;20714;-69
2022/02/03 17:23:26;;;;;;;6.10;3.80;;;8.60;99.90;;;;;;5104650;28;20288;-70
2022/02/03 17:26:03;;;;;;;10.83;4.70;;;8.50;99.90;;;;;;5106371;28;20194;-67
2022/02/03 17:28:35;;;;;;;7.30;4.00;;;8.50;99.90;;;;;;5110952;28;20232;-67
2022/02/03 17:31:08;;;;;;;8.03;4.10;;;8.50;99.90;;;;;;5095119;28;20202;-67
2022/02/03 17:54:03;;;;;;;9.23;4.50;;;8.10;99.90;;;;;;5094501;28;20205;-70
2022/02/03 18:07:54;;;;;;;9.33;4.60;;;7.90;99.90;;;;;;5102094;28;20610;-67
2022/02/03 18:10:35;;;;;;;9.70;4.50;;;7.80;99.90;;;;;;5094027;28;20622;-71
2022/02/03 18:29:56;;;;;;;11.73;5.23;;;7.70;99.90;;;;;;5098134;27;20335;-67
2022/02/03 18:35:18;;;;;;;13.70;6.40;;;7.80;99.90;;;;;;5102144;28;20202;-67
2022/02/03 18:51:37;;;;;;;9.77;5.37;;;7.80;99.90;;;;;;5084683;28;20206;-66
2022/02/03 18:54:15;;;;;;;11.23;5.93;;;7.70;99.90;;;;;;5093566;28;20237;-66
2022/02/03 18:56:49;;;;;;;11.23;5.80;;;7.80;99.90;;;;;;5093649;28;20206;-67
2022/02/03 18:59:33;;;;;;;13.73;5.27;;;7.80;99.90;;;;;;5093826;28;20238;-70
2022/02/03 19:02:31;;;;;;;11.60;6.10;;;7.90;99.90;;;;;;5093805;28;20210;-67
2022/02/03 19:11:33;;;;;;;10.97;5.60;;;7.90;99.90;;;;;;5093745;28;20197;-70
2022/02/03 19:25:08;;;;;;;9.03;4.50;;;7.80;99.90;;;;;;5093196;28;20584;-67
2022/02/03 20:03:47;;;;;;;13.70;5.33;;;8.00;99.90;;;;;;5098565;27;20297;-69
2022/02/03 20:06:30;;;;;;;9.63;4.97;;;8.10;99.90;;;;;;5106001;28;20237;-67
2022/02/03 20:09:04;;;;;;;12.37;5.80;;;8.00;99.90;;;;;;5098460;27;20308;-67
2022/02/03 20:11:34;;;;;;;9.77;4.83;;;8.00;99.90;;;;;;5098156;28;20248;-67
2022/02/03 20:14:01;;;;;;;11.83;4.87;;;8.00;99.90;;;;;;5098799;28;20208;-67
2022/02/03 20:16:28;;;;;;;14.27;6.57;;;8.00;99.90;;;;;;5100889;28;20206;-67
2022/02/03 20:18:54;;;;;;;9.90;4.60;;;8.10;99.90;;;;;;5101477;28;20233;-67
2022/02/03 20:21:24;;;;;;;10.00;4.20;;;8.20;99.90;;;;;;5100986;28;20213;-67
2022/02/03 20:23:51;;;;;;;9.30;4.60;;;8.20;99.90;;;;;;5097188;28;20298;-67
2022/02/03 20:26:18;;;;;;;10.87;4.80;;;8.30;99.90;;;;;;5103501;28;20644;-67
2022/02/03 20:28:46;;;;;;;11.57;5.27;;;8.30;99.90;;;;;;5096330;28;20222;-68
2022/02/03 20:31:13;;;;;;;11.03;4.60;;;8.30;99.90;;;;;;5104718;28;20250;-69
2022/02/03 20:33:40;;;;;;;10.17;4.90;;;8.30;99.90;;;;;;5098570;28;20201;-67
2022/02/03 20:36:08;;;;;;;9.43;4.53;;;8.20;99.90;;;;;;5100037;28;20209;-68
2022/02/03 20:38:36;;;;;;;10.43;5.10;;;8.20;99.90;;;;;;5108171;27;20229;-67
2022/02/03 20:41:03;;;;;;;11.10;4.97;;;8.30;99.90;;;;;;5109202;27;20230;-67
2022/02/03 20:43:30;;;;;;;10.73;4.30;;;8.20;99.90;;;;;;5102339;27;20211;-67
2022/02/03 20:45:58;;;;;;;9.37;4.80;;;8.20;99.90;;;;;;5103878;27;20202;-67
2022/02/03 20:48:25;;;;;;;8.87;4.90;;;8.20;99.90;;;;;;5108406;27;20223;-67
2022/02/03 20:50:52;;;;;;;11.10;4.60;;;8.30;99.90;;;;;;5108448;27;20316;-68
2022/02/03 20:53:19;;;;;;;10.47;4.97;;;8.30;99.90;;;;;;5103440;27;20212;-67
2022/02/03 20:55:48;;;;;;;9.87;4.80;;;8.20;99.90;;;;;;5115120;27;20563;-68
2022/02/03 20:58:19;;;;;;;11.13;4.93;;;8.30;99.90;;;;;;5109333;27;20245;-69
2022/02/03 21:00:52;;;;;;;10.73;5.30;;;8.30;99.90;;;;;;5104505;27;20644;-68
2022/02/03 21:03:23;;;;;;;9.93;4.80;;;8.30;99.90;;;;;;5111100;27;20203;-68
2022/02/03 21:05:50;;;;;;;10.37;5.10;;;8.20;99.90;;;;;;5106153;27;20198;-70
2022/02/03 21:08:21;;;;;;;11.93;5.33;;;8.20;99.90;;;;;;5107740;27;20226;-70
2022/02/03 21:10:49;;;;;;;12.57;4.47;;;8.30;99.90;;;;;;5111713;27;20202;-68
2022/02/03 21:13:16;;;;;;;9.37;4.70;;;8.40;99.90;;;;;;5106129;27;20197;-67
2022/02/03 21:15:43;;;;;;;11.17;5.30;;;8.40;99.90;;;;;;5109755;28;20197;-70
2022/02/03 21:18:12;;;;;;;10.53;4.50;;;8.40;99.90;;;;;;5105304;28;20222;-69
2022/02/03 21:20:40;;;;;;;12.03;5.23;;;8.40;99.90;;;;;;5114459;28;20297;-70
2022/02/03 21:23:09;;;;;;;9.47;4.90;;;8.30;99.90;;;;;;5115661;27;20683;-70
2022/02/03 21:25:40;;;;;;;8.70;4.37;;;8.30;99.90;;;;;;5116394;27;20194;-70
2022/02/03 21:28:13;;;;;;;11.53;4.43;;;8.20;99.90;;;;;;5115961;28;20224;-68
2022/02/03 21:30:41;;;;;;;10.47;4.37;;;8.20;99.90;;;;;;5115511;28;20208;-70
2022/02/03 21:33:11;;;;;;;8.10;4.43;;;8.30;99.90;;;;;;5115467;28;20202;-69